logo
Search for airport 
image banner adimage banner adimage banner ad
image banner ad

FLNG - Lunga

Located in Kalala, Zambia

ICAO - , IATA -

Data provided by Airmate  

General information

Coordinates: S14°10'56" E26°21'7"
Elevation is 3656 feet MSL.
Magnetic variation is -4° East
View others Airports in North-Western Province

Operational data

Special qualification required
Current time UTC:
Current local time:
Weather at : - ( 0 km )
METAR: UMMS 130635Z 23004MPS 4000 -SHRA BKN005 BKN024CB 09/08 Q1017 NOSIG RMK QBB160
View NOTAMs / SUP AIP / TFR affecting this airport [VIEW]
Communications frequencies: [VIEW]

Runways:

RWY identifierQFULength (ft)Width (ft)SurfaceLDA (ft)
29285°331592DIRT
11105°331592DIRT

Airport contact information

Address: Kalala Zambia

Satellite view of FLNG